Flight Track Log - Related Links

Times and Time Zones

All times are in EDT time to prevent confusion due to time zone crossing. See the THY2474 flight status page for this flight to view local times or setup timezone preferences in your user account.

Time Position Orientation Groundspeed Altitude Reporting Facility
EDT Latitude Longitude Course Direction KTS MPH feet Rate Location/Type
Sun 03:15:00 PM 40.5139 29.6410 126° Southeast  Level Estimated
Sun 03:16:00 PM 40.4472 29.7572 127° Southeast  Level Estimated
Sun 03:17:00 PM 40.3805 29.8731 127° Southeast  Level Estimated
Sun 03:18:00 PM 40.3136 29.9888 127° Southeast  Level Estimated
Sun 03:19:00 PM 40.2467 30.1044 127° Southeast  Level Estimated
Sun 03:20:00 PM 40.1796 30.2196 127° Southeast  Level Estimated
Sun 03:21:00 PM 40.1124 30.3347 127° Southeast  Level Estimated
Sun 03:22:00 PM 40.0451 30.4495 127° Southeast  Level Estimated
Sun 03:23:00 PM 39.9777 30.5641 127° Southeast  Level Estimated
Sun 03:24:00 PM 39.9101 30.6785 128° Southeast  Level Estimated
Sun 03:25:00 PM 39.8425 30.7926 128° Southeast  Level Estimated
Sun 03:26:00 PM 39.7747 30.9065 128° Southeast  Level Estimated
Sun 03:27:00 PM 39.7069 31.0202 128° Southeast  Level Estimated
Sun 03:28:00 PM 39.6389 31.1337 128° Southeast  Level Estimated
Sun 03:29:00 PM 39.5708 31.2469 128° Southeast  Level Estimated
Sun 03:30:00 PM 39.5026 31.3600 128° Southeast  Level Estimated
Sun 03:31:00 PM 39.4343 31.4728 128° Southeast  Level Estimated
Sun 03:32:00 PM 39.3659 31.5854 128° Southeast  Level Estimated
Sun 03:33:00 PM 39.2974 31.6977 128° Southeast  Level Estimated
Sun 03:34:00 PM 39.2287 31.8099 128° Southeast  Level Estimated
Sun 03:35:00 PM 39.1600 31.9218 128° Southeast  Level Estimated
Sun 03:36:00 PM 39.0911 32.0335 128° Southeast  Level Estimated
Sun 03:37:00 PM 39.0222 32.1450 129° Southeast  Level Estimated
Sun 03:38:00 PM 38.9531 32.2562 129° Southeast  Level Estimated
Sun 03:39:00 PM 38.8840 32.3673 129° Southeast  Level Estimated
Sun 03:40:00 PM 38.8147 32.4781 129° Southeast  Level Estimated
Sun 03:41:00 PM 38.7453 32.5887 129° Southeast  Level Estimated
Sun 03:42:00 PM 38.6758 32.6991 129° Southeast  Level Estimated
Sun 03:43:00 PM 38.6063 32.8093 129° Southeast  Level Estimated
Sun 03:44:00 PM 38.5366 32.9193 129° Southeast  Level Estimated
Sun 03:45:00 PM 38.4668 33.0291 129° Southeast  Level Estimated
Sun 03:46:00 PM 38.3969 33.1386 129° Southeast  Level Estimated
Sun 03:47:00 PM 38.3269 33.2480 129° Southeast  Level Estimated
Sun 03:48:00 PM 38.2568 33.3571 129° Southeast  Level Estimated
Sun 03:49:00 PM 38.1866 33.4660 129° Southeast  Level Estimated
Sun 03:50:00 PM 38.1163 33.5747 129° Southeast  Level Estimated
Sun 03:51:00 PM 38.0459 33.6832 129° Southeast  Level Estimated
Sun 03:52:00 PM 37.9754 33.7915 130° Southeast  Level Estimated
Sun 03:53:00 PM 37.9049 33.8996 130° Southeast  Level Estimated
Sun 03:54:00 PM 37.8342 34.0075 130° Southeast  Level Estimated
Sun 03:55:00 PM 37.7634 34.1151 130° Southeast  Level Estimated
Sun 03:56:00 PM 37.6925 34.2226 130° Southeast  Level Estimated
Sun 03:57:00 PM 37.6215 34.3298 130° Southeast  Level Estimated
Sun 03:58:00 PM 37.5504 34.4369 130° Southeast  Level Estimated
Sun 03:59:00 PM 37.4792 34.5438 130° Southeast  Level Estimated
Sun 04:00:00 PM 37.4080 34.6504 130° Southeast  Level Estimated
Sun 04:01:00 PM 37.3366 34.7568 130° Southeast  Level Estimated
Sun 04:02:00 PM 37.2651 34.8631 130° Southeast  Level Estimated
Sun 04:03:00 PM 37.1936 34.9691 130° Southeast  Level Estimated
Sun 04:04:00 PM 37.1219 35.0750 130° Southeast  Level Estimated
Sun 04:05:00 PM 37.0502 35.1806 130° Southeast  Level Estimated
Sun 04:06:00 PM 36.9822 35.2804 130° Southeast  Level Estimated
Sun 04:07:00 PM 36.9822 35.2804 202° Southwest  Level Estimated
Sun 04:08:00 PM 36.9822 35.2804 202° Southwest  Level Estimated
Sun 04:09:00 PM 36.9822 35.2804 202° Southwest  Level Estimated
Sun 04:10:00 PM 36.9822 35.2804 202° Southwest  Level Estimated
Sun 04:11:00 PM 36.9822 35.2804 202° Southwest  Level Estimated
Sun 04:12:00 PM 36.9822 35.2804 202° Southwest  Level Estimated
Sun 04:13:00 PM 36.9822 35.2804 202° Southwest  Level Estimated
Sun 04:14:00 PM 36.9822 35.2804 202° Southwest  Level Estimated
Sun 04:15:00 PM 36.9822 35.2804 202° Southwest  Level Estimated
Sun 04:16:00 PM 36.9822 35.2804 202° Southwest  Level Estimated
Sun 04:17:00 PM 36.9822 35.2804 202° Southwest  Level Estimated
Sun 04:18:00 PM 36.9822 35.2804 202° Southwest  Level Estimated
Sun 04:19:00 PM 36.9822 35.2804 202° Southwest  Level Estimated
Sun 04:20:00 PM 36.9822 35.2804 202° Southwest  Level Estimated
Sun 04:21:00 PM 36.9822 35.2804 202° Southwest  Level Estimated
Sun 04:22:00 PM 36.9822 35.2804 202° Southwest  Level Estimated

Login

Don't have an account? Register now (free) for customized features, flight alerts, and more!